sensor_id;sensor_type;location;lat;lon;timestamp;P1;durP1;ratioP1;P2;durP2;ratioP2
62788;SDS011;66401;42.016;21.454;2023-05-02T00:00:38;4.43;;;4.00;;
62788;SDS011;66401;42.016;21.454;2023-05-02T00:03:05;4.70;;;3.50;;
62788;SDS011;66401;42.016;21.454;2023-05-02T00:05:31;4.40;;;4.03;;
62788;SDS011;66401;42.016;21.454;2023-05-02T00:07:57;6.03;;;3.80;;
62788;SDS011;66401;42.016;21.454;2023-05-02T00:10:22;5.10;;;3.90;;
62788;SDS011;66401;42.016;21.454;2023-05-02T00:12:48;4.13;;;3.73;;
62788;SDS011;66401;42.016;21.454;2023-05-02T00:15:13;6.50;;;3.90;;
62788;SDS011;66401;42.016;21.454;2023-05-02T00:17:39;5.07;;;4.03;;
62788;SDS011;66401;42.016;21.454;2023-05-02T00:20:09;5.23;;;4.10;;
62788;SDS011;66401;42.016;21.454;2023-05-02T00:22:36;4.13;;;3.80;;
62788;SDS011;66401;42.016;21.454;2023-05-02T00:25:02;4.77;;;3.80;;
62788;SDS011;66401;42.016;21.454;2023-05-02T00:27:28;3.90;;;3.60;;
62788;SDS011;66401;42.016;21.454;2023-05-02T00:29:54;4.93;;;3.47;;
62788;SDS011;66401;42.016;21.454;2023-05-02T00:32:19;4.00;;;3.70;;
62788;SDS011;66401;42.016;21.454;2023-05-02T00:34:45;4.30;;;4.00;;
62788;SDS011;66401;42.016;21.454;2023-05-02T00:37:10;3.97;;;3.67;;
62788;SDS011;66401;42.016;21.454;2023-05-02T00:39:37;5.00;;;3.60;;
62788;SDS011;66401;42.016;21.454;2023-05-02T00:42:02;4.20;;;3.80;;
62788;SDS011;66401;42.016;21.454;2023-05-02T00:44:28;4.23;;;3.83;;
62788;SDS011;66401;42.016;21.454;2023-05-02T00:46:54;4.33;;;3.93;;
62788;SDS011;66401;42.016;21.454;2023-05-02T00:49:20;3.60;;;3.30;;
62788;SDS011;66401;42.016;21.454;2023-05-02T00:51:46;3.77;;;3.40;;
62788;SDS011;66401;42.016;21.454;2023-05-02T00:54:12;4.20;;;3.90;;
62788;SDS011;66401;42.016;21.454;2023-05-02T00:56:39;4.73;;;3.63;;
62788;SDS011;66401;42.016;21.454;2023-05-02T00:59:06;3.90;;;3.60;;
62788;SDS011;66401;42.016;21.454;2023-05-02T01:01:39;4.33;;;3.80;;
62788;SDS011;66401;42.016;21.454;2023-05-02T01:12:32;3.57;;;3.30;;
62788;SDS011;66401;42.016;21.454;2023-05-02T01:14:41;3.87;;;3.57;;
62788;SDS011;66401;42.016;21.454;2023-05-02T01:17:10;3.90;;;3.60;;
62788;SDS011;66401;42.016;21.454;2023-05-02T01:19:39;5.13;;;3.73;;
62788;SDS011;66401;42.016;21.454;2023-05-02T01:22:08;4.33;;;3.87;;
62788;SDS011;66401;42.016;21.454;2023-05-02T01:25:19;4.07;;;3.63;;
62788;SDS011;66401;42.016;21.454;2023-05-02T01:30:17;4.17;;;3.70;;
62788;SDS011;66401;42.016;21.454;2023-05-02T01:32:46;4.20;;;3.80;;
62788;SDS011;66401;42.016;21.454;2023-05-02T01:35:15;5.83;;;4.13;;
62788;SDS011;66401;42.016;21.454;2023-05-02T01:37:42;4.67;;;4.27;;
62788;SDS011;66401;42.016;21.454;2023-05-02T01:40:12;4.03;;;3.73;;
62788;SDS011;66401;42.016;21.454;2023-05-02T01:42:40;4.87;;;3.60;;
62788;SDS011;66401;42.016;21.454;2023-05-02T01:45:07;4.07;;;3.70;;
62788;SDS011;66401;42.016;21.454;2023-05-02T01:47:35;4.50;;;3.67;;
62788;SDS011;66401;42.016;21.454;2023-05-02T01:50:04;8.53;;;4.20;;
62788;SDS011;66401;42.016;21.454;2023-05-02T01:52:31;6.20;;;3.63;;
62788;SDS011;66401;42.016;21.454;2023-05-02T01:54:58;7.37;;;4.00;;
62788;SDS011;66401;42.016;21.454;2023-05-02T01:57:24;4.53;;;3.90;;
62788;SDS011;66401;42.016;21.454;2023-05-02T01:59:51;6.37;;;4.20;;
62788;SDS011;66401;42.016;21.454;2023-05-02T02:02:19;3.80;;;3.50;;
62788;SDS011;66401;42.016;21.454;2023-05-02T02:04:46;4.30;;;3.90;;
62788;SDS011;66401;42.016;21.454;2023-05-02T02:07:13;4.40;;;4.00;;
62788;SDS011;66401;42.016;21.454;2023-05-02T02:09:39;5.40;;;4.03;;
62788;SDS011;66401;42.016;21.454;2023-05-02T02:12:06;5.77;;;4.67;;
62788;SDS011;66401;42.016;21.454;2023-05-02T02:14:37;4.07;;;3.67;;
62788;SDS011;66401;42.016;21.454;2023-05-02T02:17:11;5.50;;;4.57;;
62788;SDS011;66401;42.016;21.454;2023-05-02T02:19:39;4.53;;;3.90;;
62788;SDS011;66401;42.016;21.454;2023-05-02T02:22:07;3.50;;;3.20;;
62788;SDS011;66401;42.016;21.454;2023-05-02T02:24:36;5.13;;;4.00;;
62788;SDS011;66401;42.016;21.454;2023-05-02T02:27:04;3.67;;;3.37;;
62788;SDS011;66401;42.016;21.454;2023-05-02T02:29:29;4.20;;;3.80;;
62788;SDS011;66401;42.016;21.454;2023-05-02T02:31:55;4.00;;;3.70;;
62788;SDS011;66401;42.016;21.454;2023-05-02T02:34:20;4.27;;;3.87;;
62788;SDS011;66401;42.016;21.454;2023-05-02T02:44:51;4.80;;;3.83;;
62788;SDS011;66401;42.016;21.454;2023-05-02T02:50:30;7.60;;;4.93;;
62788;SDS011;66401;42.016;21.454;2023-05-02T02:53:07;4.70;;;4.30;;
62788;SDS011;66401;42.016;21.454;2023-05-02T02:55:47;4.63;;;4.13;;
62788;SDS011;66401;42.016;21.454;2023-05-02T03:01:28;5.00;;;4.50;;
62788;SDS011;66401;42.016;21.454;2023-05-02T03:03:56;5.20;;;4.43;;
62788;SDS011;66401;42.016;21.454;2023-05-02T03:06:22;4.63;;;4.00;;
62788;SDS011;66401;42.016;21.454;2023-05-02T03:08:48;4.50;;;4.20;;
62788;SDS011;66401;42.016;21.454;2023-05-02T03:11:14;4.83;;;3.90;;
62788;SDS011;66401;42.016;21.454;2023-05-02T03:13:40;5.93;;;3.97;;
62788;SDS011;66401;42.016;21.454;2023-05-02T03:18:41;4.60;;;4.10;;
62788;SDS011;66401;42.016;21.454;2023-05-02T03:21:07;4.87;;;3.83;;
62788;SDS011;66401;42.016;21.454;2023-05-02T03:23:32;6.37;;;3.93;;
62788;SDS011;66401;42.016;21.454;2023-05-02T03:25:58;4.17;;;3.83;;
62788;SDS011;66401;42.016;21.454;2023-05-02T03:28:23;4.37;;;3.97;;
62788;SDS011;66401;42.016;21.454;2023-05-02T03:30:49;4.23;;;3.83;;
62788;SDS011;66401;42.016;21.454;2023-05-02T03:33:15;4.40;;;4.00;;
62788;SDS011;66401;42.016;21.454;2023-05-02T03:35:40;6.90;;;4.30;;
62788;SDS011;66401;42.016;21.454;2023-05-02T03:38:06;4.90;;;4.37;;
62788;SDS011;66401;42.016;21.454;2023-05-02T03:40:33;4.53;;;4.13;;
62788;SDS011;66401;42.016;21.454;2023-05-02T03:42:58;5.03;;;4.13;;
62788;SDS011;66401;42.016;21.454;2023-05-02T03:45:24;4.73;;;4.33;;
62788;SDS011;66401;42.016;21.454;2023-05-02T03:47:50;5.43;;;4.13;;
62788;SDS011;66401;42.016;21.454;2023-05-02T03:50:15;4.30;;;3.87;;
62788;SDS011;66401;42.016;21.454;2023-05-02T03:52:41;7.53;;;4.23;;
62788;SDS011;66401;42.016;21.454;2023-05-02T03:55:06;6.33;;;4.50;;
62788;SDS011;66401;42.016;21.454;2023-05-02T03:57:32;4.60;;;3.97;;
62788;SDS011;66401;42.016;21.454;2023-05-02T03:59:57;4.67;;;4.17;;
62788;SDS011;66401;42.016;21.454;2023-05-02T04:02:23;4.67;;;4.27;;
62788;SDS011;66401;42.016;21.454;2023-05-02T04:04:49;4.70;;;4.30;;
62788;SDS011;66401;42.016;21.454;2023-05-02T04:07:15;5.23;;;4.70;;
62788;SDS011;66401;42.016;21.454;2023-05-02T04:09:43;5.27;;;4.77;;
62788;SDS011;66401;42.016;21.454;2023-05-02T04:12:09;5.20;;;4.50;;
62788;SDS011;66401;42.016;21.454;2023-05-02T04:14:35;9.07;;;6.90;;
62788;SDS011;66401;42.016;21.454;2023-05-02T04:17:00;14.53;;;11.70;;
62788;SDS011;66401;42.016;21.454;2023-05-02T04:19:26;13.97;;;11.97;;
62788;SDS011;66401;42.016;21.454;2023-05-02T04:21:51;12.03;;;10.67;;
62788;SDS011;66401;42.016;21.454;2023-05-02T04:24:17;13.20;;;10.13;;
62788;SDS011;66401;42.016;21.454;2023-05-02T04:26:42;8.53;;;7.57;;
62788;SDS011;66401;42.016;21.454;2023-05-02T04:29:08;5.93;;;5.07;;
62788;SDS011;66401;42.016;21.454;2023-05-02T04:31:34;4.57;;;4.13;;
62788;SDS011;66401;42.016;21.454;2023-05-02T04:34:00;4.40;;;4.10;;
62788;SDS011;66401;42.016;21.454;2023-05-02T04:36:25;4.80;;;4.40;;
62788;SDS011;66401;42.016;21.454;2023-05-02T04:38:52;5.27;;;4.23;;
62788;SDS011;66401;42.016;21.454;2023-05-02T04:41:18;4.83;;;4.10;;
62788;SDS011;66401;42.016;21.454;2023-05-02T04:43:43;4.70;;;4.27;;
62788;SDS011;66401;42.016;21.454;2023-05-02T04:46:09;4.07;;;3.77;;
62788;SDS011;66401;42.016;21.454;2023-05-02T04:48:35;6.23;;;5.63;;
62788;SDS011;66401;42.016;21.454;2023-05-02T04:51:01;8.37;;;6.00;;
62788;SDS011;66401;42.016;21.454;2023-05-02T04:53:26;7.60;;;6.17;;
62788;SDS011;66401;42.016;21.454;2023-05-02T04:55:52;6.60;;;5.93;;
62788;SDS011;66401;42.016;21.454;2023-05-02T04:58:17;7.63;;;6.17;;
62788;SDS011;66401;42.016;21.454;2023-05-02T05:00:43;6.10;;;5.50;;
62788;SDS011;66401;42.016;21.454;2023-05-02T05:03:08;9.30;;;5.70;;
62788;SDS011;66401;42.016;21.454;2023-05-02T05:05:34;7.90;;;6.00;;
62788;SDS011;66401;42.016;21.454;2023-05-02T05:08:00;9.10;;;7.23;;
62788;SDS011;66401;42.016;21.454;2023-05-02T05:10:25;9.53;;;6.10;;
62788;SDS011;66401;42.016;21.454;2023-05-02T05:12:51;5.70;;;5.10;;
62788;SDS011;66401;42.016;21.454;2023-05-02T05:15:17;8.87;;;5.73;;
62788;SDS011;66401;42.016;21.454;2023-05-02T05:17:44;7.50;;;6.13;;
62788;SDS011;66401;42.016;21.454;2023-05-02T05:20:10;8.03;;;6.10;;
62788;SDS011;66401;42.016;21.454;2023-05-02T05:22:39;5.83;;;5.13;;
62788;SDS011;66401;42.016;21.454;2023-05-02T05:25:08;10.67;;;5.23;;
62788;SDS011;66401;42.016;21.454;2023-05-02T05:27:35;4.93;;;4.50;;
62788;SDS011;66401;42.016;21.454;2023-05-02T05:30:01;4.90;;;4.50;;
62788;SDS011;66401;42.016;21.454;2023-05-02T05:32:27;4.87;;;4.47;;
62788;SDS011;66401;42.016;21.454;2023-05-02T05:34:53;6.07;;;5.07;;
62788;SDS011;66401;42.016;21.454;2023-05-02T05:37:19;8.43;;;4.87;;
62788;SDS011;66401;42.016;21.454;2023-05-02T05:39:45;4.40;;;4.00;;
62788;SDS011;66401;42.016;21.454;2023-05-02T05:42:11;5.97;;;4.33;;
62788;SDS011;66401;42.016;21.454;2023-05-02T05:44:37;5.40;;;4.90;;
62788;SDS011;66401;42.016;21.454;2023-05-02T05:47:03;5.17;;;3.93;;
62788;SDS011;66401;42.016;21.454;2023-05-02T05:49:28;4.83;;;4.20;;
62788;SDS011;66401;42.016;21.454;2023-05-02T05:51:54;6.70;;;4.53;;
62788;SDS011;66401;42.016;21.454;2023-05-02T05:54:20;5.27;;;4.60;;
62788;SDS011;66401;42.016;21.454;2023-05-02T05:56:45;6.37;;;4.57;;
62788;SDS011;66401;42.016;21.454;2023-05-02T05:59:11;4.63;;;4.23;;
62788;SDS011;66401;42.016;21.454;2023-05-02T06:01:37;4.77;;;4.37;;
62788;SDS011;66401;42.016;21.454;2023-05-02T06:04:03;5.37;;;4.10;;
62788;SDS011;66401;42.016;21.454;2023-05-02T06:06:32;4.37;;;3.97;;
62788;SDS011;66401;42.016;21.454;2023-05-02T06:08:58;5.97;;;4.47;;
62788;SDS011;66401;42.016;21.454;2023-05-02T06:11:23;5.90;;;4.40;;
62788;SDS011;66401;42.016;21.454;2023-05-02T06:13:50;4.83;;;3.80;;
62788;SDS011;66401;42.016;21.454;2023-05-02T06:16:16;4.37;;;3.97;;
62788;SDS011;66401;42.016;21.454;2023-05-02T06:18:45;4.47;;;4.07;;
62788;SDS011;66401;42.016;21.454;2023-05-02T06:21:11;5.13;;;4.17;;
62788;SDS011;66401;42.016;21.454;2023-05-02T06:23:37;6.73;;;4.17;;
62788;SDS011;66401;42.016;21.454;2023-05-02T06:26:03;5.77;;;3.87;;
62788;SDS011;66401;42.016;21.454;2023-05-02T06:28:29;6.13;;;3.30;;
62788;SDS011;66401;42.016;21.454;2023-05-02T06:31:03;5.53;;;4.17;;
62788;SDS011;66401;42.016;21.454;2023-05-02T06:33:30;4.47;;;3.80;;
62788;SDS011;66401;42.016;21.454;2023-05-02T06:35:56;3.90;;;3.60;;
62788;SDS011;66401;42.016;21.454;2023-05-02T06:38:23;6.50;;;4.00;;
62788;SDS011;66401;42.016;21.454;2023-05-02T06:40:49;5.00;;;3.80;;
62788;SDS011;66401;42.016;21.454;2023-05-02T06:43:15;3.80;;;3.50;;
62788;SDS011;66401;42.016;21.454;2023-05-02T06:45:41;4.30;;;3.90;;
62788;SDS011;66401;42.016;21.454;2023-05-02T06:48:07;3.90;;;3.60;;
62788;SDS011;66401;42.016;21.454;2023-05-02T06:50:33;4.53;;;4.10;;
62788;SDS011;66401;42.016;21.454;2023-05-02T06:52:59;4.63;;;4.23;;
62788;SDS011;66401;42.016;21.454;2023-05-02T06:55:27;8.53;;;3.97;;
62788;SDS011;66401;42.016;21.454;2023-05-02T06:57:53;4.87;;;3.97;;
62788;SDS011;66401;42.016;21.454;2023-05-02T07:00:19;4.47;;;4.07;;
62788;SDS011;66401;42.016;21.454;2023-05-02T07:02:45;4.43;;;3.80;;
62788;SDS011;66401;42.016;21.454;2023-05-02T07:05:12;4.53;;;3.80;;
62788;SDS011;66401;42.016;21.454;2023-05-02T07:07:39;3.90;;;3.60;;
62788;SDS011;66401;42.016;21.454;2023-05-02T07:10:06;5.23;;;4.27;;
62788;SDS011;66401;42.016;21.454;2023-05-02T07:12:32;5.23;;;4.30;;
62788;SDS011;66401;42.016;21.454;2023-05-02T07:14:58;4.73;;;4.17;;
62788;SDS011;66401;42.016;21.454;2023-05-02T07:17:23;4.40;;;3.97;;
62788;SDS011;66401;42.016;21.454;2023-05-02T07:19:49;4.73;;;4.20;;
62788;SDS011;66401;42.016;21.454;2023-05-02T07:22:15;8.00;;;4.50;;
62788;SDS011;66401;42.016;21.454;2023-05-02T07:24:41;4.50;;;4.10;;
62788;SDS011;66401;42.016;21.454;2023-05-02T07:27:09;7.57;;;4.20;;
62788;SDS011;66401;42.016;21.454;2023-05-02T07:29:36;4.33;;;3.90;;
62788;SDS011;66401;42.016;21.454;2023-05-02T07:32:02;7.37;;;3.77;;
62788;SDS011;66401;42.016;21.454;2023-05-02T07:34:28;4.00;;;3.70;;
62788;SDS011;66401;42.016;21.454;2023-05-02T07:36:54;4.77;;;3.80;;
62788;SDS011;66401;42.016;21.454;2023-05-02T07:39:20;5.97;;;4.40;;
62788;SDS011;66401;42.016;21.454;2023-05-02T07:41:46;4.97;;;4.03;;
62788;SDS011;66401;42.016;21.454;2023-05-02T07:44:13;4.70;;;4.27;;
62788;SDS011;66401;42.016;21.454;2023-05-02T07:46:38;5.00;;;4.50;;
62788;SDS011;66401;42.016;21.454;2023-05-02T07:49:03;4.30;;;3.97;;
62788;SDS011;66401;42.016;21.454;2023-05-02T07:51:30;5.83;;;4.40;;
62788;SDS011;66401;42.016;21.454;2023-05-02T07:53:56;6.03;;;4.37;;
62788;SDS011;66401;42.016;21.454;2023-05-02T07:56:26;5.80;;;4.20;;
62788;SDS011;66401;42.016;21.454;2023-05-02T07:58:52;4.20;;;3.83;;
62788;SDS011;66401;42.016;21.454;2023-05-02T08:01:17;4.53;;;4.03;;
62788;SDS011;66401;42.016;21.454;2023-05-02T08:03:44;5.97;;;4.20;;
62788;SDS011;66401;42.016;21.454;2023-05-02T08:06:10;4.00;;;3.70;;
62788;SDS011;66401;42.016;21.454;2023-05-02T08:08:35;4.20;;;3.80;;
62788;SDS011;66401;42.016;21.454;2023-05-02T08:11:01;5.23;;;3.73;;
62788;SDS011;66401;42.016;21.454;2023-05-02T08:13:29;4.23;;;3.97;;
62788;SDS011;66401;42.016;21.454;2023-05-02T08:15:55;4.27;;;3.93;;
62788;SDS011;66401;42.016;21.454;2023-05-02T08:18:24;8.57;;;3.80;;
62788;SDS011;66401;42.016;21.454;2023-05-02T08:20:50;4.03;;;3.53;;
62788;SDS011;66401;42.016;21.454;2023-05-02T08:23:17;4.93;;;3.87;;
62788;SDS011;66401;42.016;21.454;2023-05-02T08:25:43;4.50;;;4.13;;
62788;SDS011;66401;42.016;21.454;2023-05-02T08:28:09;3.80;;;3.60;;
62788;SDS011;66401;42.016;21.454;2023-05-02T08:30:34;3.97;;;3.67;;
62788;SDS011;66401;42.016;21.454;2023-05-02T08:33:00;4.03;;;3.73;;
62788;SDS011;66401;42.016;21.454;2023-05-02T08:35:27;4.20;;;3.90;;
62788;SDS011;66401;42.016;21.454;2023-05-02T08:37:54;8.43;;;4.37;;
62788;SDS011;66401;42.016;21.454;2023-05-02T08:40:19;6.37;;;4.73;;
62788;SDS011;66401;42.016;21.454;2023-05-02T08:42:46;5.40;;;3.67;;
62788;SDS011;66401;42.016;21.454;2023-05-02T08:45:12;7.03;;;3.87;;
62788;SDS011;66401;42.016;21.454;2023-05-02T08:47:39;5.47;;;3.47;;
62788;SDS011;66401;42.016;21.454;2023-05-02T08:50:07;4.03;;;3.43;;
62788;SDS011;66401;42.016;21.454;2023-05-02T08:52:34;5.10;;;3.73;;
62788;SDS011;66401;42.016;21.454;2023-05-02T08:55:01;4.10;;;3.80;;
62788;SDS011;66401;42.016;21.454;2023-05-02T08:57:28;4.20;;;3.90;;
62788;SDS011;66401;42.016;21.454;2023-05-02T08:59:57;4.43;;;4.03;;
62788;SDS011;66401;42.016;21.454;2023-05-02T09:05:18;4.60;;;4.20;;
62788;SDS011;66401;42.016;21.454;2023-05-02T09:07:46;5.33;;;4.07;;
62788;SDS011;66401;42.016;21.454;2023-05-02T09:10:12;4.87;;;3.77;;
62788;SDS011;66401;42.016;21.454;2023-05-02T09:12:39;8.43;;;3.87;;
62788;SDS011;66401;42.016;21.454;2023-05-02T09:15:14;3.97;;;3.67;;
62788;SDS011;66401;42.016;21.454;2023-05-02T09:17:41;4.07;;;3.40;;
62788;SDS011;66401;42.016;21.454;2023-05-02T09:20:11;4.30;;;3.90;;
62788;SDS011;66401;42.016;21.454;2023-05-02T09:22:38;5.07;;;3.90;;
62788;SDS011;66401;42.016;21.454;2023-05-02T09:25:11;4.67;;;4.00;;
62788;SDS011;66401;42.016;21.454;2023-05-02T09:27:52;4.53;;;4.23;;
62788;SDS011;66401;42.016;21.454;2023-05-02T09:30:22;5.53;;;3.67;;
62788;SDS011;66401;42.016;21.454;2023-05-02T09:32:50;4.43;;;4.03;;
62788;SDS011;66401;42.016;21.454;2023-05-02T09:35:17;4.23;;;3.83;;
62788;SDS011;66401;42.016;21.454;2023-05-02T09:40:25;7.07;;;4.20;;
62788;SDS011;66401;42.016;21.454;2023-05-02T09:42:53;5.27;;;3.70;;
62788;SDS011;66401;42.016;21.454;2023-05-02T09:45:22;4.77;;;4.10;;
62788;SDS011;66401;42.016;21.454;2023-05-02T09:47:49;4.20;;;3.90;;
62788;SDS011;66401;42.016;21.454;2023-05-02T09:50:36;4.30;;;3.83;;
62788;SDS011;66401;42.016;21.454;2023-05-02T09:53:03;4.10;;;3.73;;
62788;SDS011;66401;42.016;21.454;2023-05-02T09:55:30;4.17;;;3.87;;
62788;SDS011;66401;42.016;21.454;2023-05-02T09:57:56;5.93;;;3.90;;
62788;SDS011;66401;42.016;21.454;2023-05-02T10:00:21;4.43;;;3.47;;
62788;SDS011;66401;42.016;21.454;2023-05-02T10:02:49;3.70;;;3.50;;
62788;SDS011;66401;42.016;21.454;2023-05-02T10:05:15;4.27;;;3.67;;
62788;SDS011;66401;42.016;21.454;2023-05-02T10:07:42;5.27;;;3.80;;
62788;SDS011;66401;42.016;21.454;2023-05-02T10:10:10;4.27;;;3.70;;
62788;SDS011;66401;42.016;21.454;2023-05-02T10:12:41;4.47;;;4.10;;
62788;SDS011;66401;42.016;21.454;2023-05-02T10:15:07;5.03;;;3.80;;
62788;SDS011;66401;42.016;21.454;2023-05-02T10:17:38;4.97;;;4.00;;
62788;SDS011;66401;42.016;21.454;2023-05-02T10:20:08;4.00;;;3.70;;
62788;SDS011;66401;42.016;21.454;2023-05-02T10:22:40;4.67;;;3.63;;
62788;SDS011;66401;42.016;21.454;2023-05-02T10:25:07;3.60;;;3.40;;
62788;SDS011;66401;42.016;21.454;2023-05-02T10:27:33;5.07;;;3.80;;
62788;SDS011;66401;42.016;21.454;2023-05-02T10:29:59;3.70;;;3.27;;
62788;SDS011;66401;42.016;21.454;2023-05-02T10:32:28;6.47;;;3.80;;
62788;SDS011;66401;42.016;21.454;2023-05-02T10:34:55;3.47;;;3.27;;
62788;SDS011;66401;42.016;21.454;2023-05-02T10:37:21;3.53;;;3.33;;
62788;SDS011;66401;42.016;21.454;2023-05-02T10:39:49;4.20;;;3.60;;
62788;SDS011;66401;42.016;21.454;2023-05-02T10:42:15;3.30;;;3.10;;
62788;SDS011;66401;42.016;21.454;2023-05-02T10:44:42;3.90;;;3.50;;
62788;SDS011;66401;42.016;21.454;2023-05-02T10:47:17;4.57;;;3.70;;
62788;SDS011;66401;42.016;21.454;2023-05-02T10:49:54;3.80;;;3.50;;
62788;SDS011;66401;42.016;21.454;2023-05-02T10:52:25;6.07;;;3.40;;
62788;SDS011;66401;42.016;21.454;2023-05-02T11:00:30;3.70;;;3.50;;
62788;SDS011;66401;42.016;21.454;2023-05-02T11:02:58;4.70;;;3.70;;
62788;SDS011;66401;42.016;21.454;2023-05-02T11:05:24;3.83;;;3.53;;
62788;SDS011;66401;42.016;21.454;2023-05-02T11:10:41;4.37;;;3.60;;
62788;SDS011;66401;42.016;21.454;2023-05-02T11:13:07;4.97;;;3.70;;
62788;SDS011;66401;42.016;21.454;2023-05-02T11:18:18;5.43;;;3.63;;
62788;SDS011;66401;42.016;21.454;2023-05-02T11:20:44;3.70;;;3.30;;
62788;SDS011;66401;42.016;21.454;2023-05-02T11:25:40;3.77;;;3.30;;
62788;SDS011;66401;42.016;21.454;2023-05-02T11:28:37;4.67;;;3.27;;
62788;SDS011;66401;42.016;21.454;2023-05-02T11:30:58;3.83;;;3.53;;
62788;SDS011;66401;42.016;21.454;2023-05-02T11:33:25;5.13;;;3.70;;
62788;SDS011;66401;42.016;21.454;2023-05-02T11:35:52;3.37;;;3.17;;
62788;SDS011;66401;42.016;21.454;2023-05-02T11:38:18;3.87;;;3.17;;
62788;SDS011;66401;42.016;21.454;2023-05-02T11:40:52;3.70;;;3.37;;
62788;SDS011;66401;42.016;21.454;2023-05-02T11:43:22;3.87;;;3.47;;
62788;SDS011;66401;42.016;21.454;2023-05-02T11:45:52;5.77;;;3.40;;
62788;SDS011;66401;42.016;21.454;2023-05-02T11:48:19;4.33;;;3.33;;
62788;SDS011;66401;42.016;21.454;2023-05-02T11:50:47;3.53;;;3.00;;
62788;SDS011;66401;42.016;21.454;2023-05-02T11:53:26;3.77;;;3.33;;
62788;SDS011;66401;42.016;21.454;2023-05-02T11:55:56;6.73;;;3.33;;
62788;SDS011;66401;42.016;21.454;2023-05-02T11:58:26;6.77;;;3.40;;
62788;SDS011;66401;42.016;21.454;2023-05-02T12:00:57;4.50;;;2.90;;
62788;SDS011;66401;42.016;21.454;2023-05-02T12:03:27;4.83;;;3.57;;
62788;SDS011;66401;42.016;21.454;2023-05-02T12:05:55;3.23;;;3.03;;
62788;SDS011;66401;42.016;21.454;2023-05-02T12:08:26;3.83;;;3.27;;
62788;SDS011;66401;42.016;21.454;2023-05-02T12:10:53;4.70;;;3.00;;
62788;SDS011;66401;42.016;21.454;2023-05-02T12:13:20;3.27;;;2.83;;
62788;SDS011;66401;42.016;21.454;2023-05-02T12:15:47;6.80;;;3.20;;
62788;SDS011;66401;42.016;21.454;2023-05-02T12:18:14;3.00;;;2.73;;
62788;SDS011;66401;42.016;21.454;2023-05-02T12:20:40;3.40;;;3.10;;
62788;SDS011;66401;42.016;21.454;2023-05-02T12:23:07;4.47;;;2.83;;
62788;SDS011;66401;42.016;21.454;2023-05-02T12:25:37;3.63;;;2.87;;
62788;SDS011;66401;42.016;21.454;2023-05-02T12:28:04;3.17;;;2.90;;
62788;SDS011;66401;42.016;21.454;2023-05-02T12:30:30;3.30;;;2.93;;
62788;SDS011;66401;42.016;21.454;2023-05-02T12:32:57;3.20;;;2.90;;
62788;SDS011;66401;42.016;21.454;2023-05-02T12:35:25;3.13;;;2.93;;
62788;SDS011;66401;42.016;21.454;2023-05-02T12:37:52;3.87;;;2.90;;
62788;SDS011;66401;42.016;21.454;2023-05-02T12:40:18;3.33;;;2.97;;
62788;SDS011;66401;42.016;21.454;2023-05-02T12:43:00;4.47;;;3.10;;
62788;SDS011;66401;42.016;21.454;2023-05-02T12:45:31;3.83;;;2.97;;
62788;SDS011;66401;42.016;21.454;2023-05-02T12:50:52;5.00;;;2.90;;
62788;SDS011;66401;42.016;21.454;2023-05-02T12:56:07;3.50;;;3.30;;
62788;SDS011;66401;42.016;21.454;2023-05-02T12:58:47;3.47;;;2.93;;
62788;SDS011;66401;42.016;21.454;2023-05-02T13:01:13;3.27;;;3.00;;
62788;SDS011;66401;42.016;21.454;2023-05-02T13:03:40;6.23;;;3.17;;
62788;SDS011;66401;42.016;21.454;2023-05-02T13:06:06;4.77;;;2.80;;
62788;SDS011;66401;42.016;21.454;2023-05-02T13:08:33;4.07;;;3.43;;
62788;SDS011;66401;42.016;21.454;2023-05-02T13:10:59;3.30;;;3.00;;
62788;SDS011;66401;42.016;21.454;2023-05-02T13:13:25;3.13;;;2.73;;
62788;SDS011;66401;42.016;21.454;2023-05-02T13:15:52;3.33;;;2.90;;
62788;SDS011;66401;42.016;21.454;2023-05-02T13:18:17;2.80;;;2.60;;
62788;SDS011;66401;42.016;21.454;2023-05-02T13:20:43;3.27;;;3.00;;
62788;SDS011;66401;42.016;21.454;2023-05-02T13:23:08;3.40;;;3.10;;
62788;SDS011;66401;42.016;21.454;2023-05-02T13:25:34;3.33;;;2.90;;
62788;SDS011;66401;42.016;21.454;2023-05-02T13:27:59;2.93;;;2.73;;
62788;SDS011;66401;42.016;21.454;2023-05-02T13:30:26;3.60;;;3.03;;
62788;SDS011;66401;42.016;21.454;2023-05-02T13:32:52;3.00;;;2.73;;
62788;SDS011;66401;42.016;21.454;2023-05-02T13:35:17;3.40;;;3.10;;
62788;SDS011;66401;42.016;21.454;2023-05-02T13:37:43;3.30;;;2.80;;
62788;SDS011;66401;42.016;21.454;2023-05-02T13:40:08;3.83;;;3.07;;
62788;SDS011;66401;42.016;21.454;2023-05-02T13:42:34;3.07;;;2.83;;
62788;SDS011;66401;42.016;21.454;2023-05-02T13:45:00;3.13;;;2.83;;
62788;SDS011;66401;42.016;21.454;2023-05-02T13:47:29;4.23;;;2.87;;
62788;SDS011;66401;42.016;21.454;2023-05-02T13:49:55;4.10;;;2.60;;
62788;SDS011;66401;42.016;21.454;2023-05-02T13:52:20;3.00;;;2.70;;
62788;SDS011;66401;42.016;21.454;2023-05-02T13:54:46;2.57;;;2.37;;
62788;SDS011;66401;42.016;21.454;2023-05-02T13:57:11;3.03;;;2.73;;
62788;SDS011;66401;42.016;21.454;2023-05-02T13:59:37;3.03;;;2.73;;
62788;SDS011;66401;42.016;21.454;2023-05-02T14:02:02;3.27;;;2.73;;
62788;SDS011;66401;42.016;21.454;2023-05-02T14:04:28;3.10;;;2.80;;
62788;SDS011;66401;42.016;21.454;2023-05-02T14:06:53;3.27;;;2.87;;
62788;SDS011;66401;42.016;21.454;2023-05-02T14:09:19;2.80;;;2.60;;
62788;SDS011;66401;42.016;21.454;2023-05-02T14:11:45;2.60;;;2.40;;
62788;SDS011;66401;42.016;21.454;2023-05-02T14:14:11;3.00;;;2.80;;
62788;SDS011;66401;42.016;21.454;2023-05-02T14:16:37;2.83;;;2.50;;
62788;SDS011;66401;42.016;21.454;2023-05-02T14:19:03;2.70;;;2.50;;
62788;SDS011;66401;42.016;21.454;2023-05-02T14:21:29;2.73;;;2.47;;
62788;SDS011;66401;42.016;21.454;2023-05-02T14:23:55;3.97;;;2.80;;
62788;SDS011;66401;42.016;21.454;2023-05-02T14:26:21;3.17;;;2.87;;
62788;SDS011;66401;42.016;21.454;2023-05-02T14:28:47;2.90;;;2.13;;
62788;SDS011;66401;42.016;21.454;2023-05-02T14:31:12;2.63;;;2.40;;
62788;SDS011;66401;42.016;21.454;2023-05-02T14:33:38;2.37;;;2.27;;
62788;SDS011;66401;42.016;21.454;2023-05-02T14:36:04;2.57;;;2.37;;
62788;SDS011;66401;42.016;21.454;2023-05-02T14:38:29;2.63;;;2.43;;
62788;SDS011;66401;42.016;21.454;2023-05-02T14:40:55;3.93;;;2.23;;
62788;SDS011;66401;42.016;21.454;2023-05-02T14:43:21;2.50;;;2.30;;
62788;SDS011;66401;42.016;21.454;2023-05-02T14:45:46;2.50;;;2.10;;
62788;SDS011;66401;42.016;21.454;2023-05-02T14:48:12;2.30;;;2.10;;
62788;SDS011;66401;42.016;21.454;2023-05-02T14:50:41;2.57;;;2.47;;
62788;SDS011;66401;42.016;21.454;2023-05-02T14:53:07;3.43;;;2.63;;
62788;SDS011;66401;42.016;21.454;2023-05-02T14:55:36;4.80;;;2.57;;
62788;SDS011;66401;42.016;21.454;2023-05-02T14:58:06;2.50;;;2.30;;
62788;SDS011;66401;42.016;21.454;2023-05-02T15:00:35;4.57;;;2.50;;
62788;SDS011;66401;42.016;21.454;2023-05-02T15:03:06;3.23;;;2.67;;
62788;SDS011;66401;42.016;21.454;2023-05-02T15:05:34;2.70;;;2.00;;
62788;SDS011;66401;42.016;21.454;2023-05-02T15:08:00;2.57;;;2.37;;
62788;SDS011;66401;42.016;21.454;2023-05-02T15:10:26;1.97;;;1.87;;
62788;SDS011;66401;42.016;21.454;2023-05-02T15:12:52;2.67;;;2.47;;
62788;SDS011;66401;42.016;21.454;2023-05-02T15:15:17;3.20;;;2.37;;
62788;SDS011;66401;42.016;21.454;2023-05-02T15:17:43;4.07;;;2.43;;
62788;SDS011;66401;42.016;21.454;2023-05-02T15:20:09;2.60;;;2.40;;
62788;SDS011;66401;42.016;21.454;2023-05-02T15:22:36;2.67;;;2.33;;
62788;SDS011;66401;42.016;21.454;2023-05-02T15:25:01;4.50;;;2.60;;